Time;durP1;ratioP1;P1;durP2;ratioP2;P2;SDS_P1;SDS_P2;PMS_P1;PMS_P2;Temp;Humidity;BMP_temperature;BMP_pressure;BME280_temperature;BME280_humidity;BME280_pressure;Samples;Min_cycle;Max_cycle;Signal;HPM_P1;HPM_P2
2023/01/31 00:00:53;;;;;;;26.55;6.63;;;3.00;99.90;;;;;;4999011;28;20396;-80
2023/01/31 00:03:19;;;;;;;20.13;6.43;;;2.90;99.90;;;;;;5000050;28;20387;-80
2023/01/31 00:05:44;;;;;;;25.48;6.32;;;3.10;99.90;;;;;;5021898;28;20445;-80
2023/01/31 00:08:11;;;;;;;22.08;5.93;;;3.10;99.90;;;;;;4997946;28;20392;-79
2023/01/31 00:10:37;;;;;;;22.67;5.90;;;3.20;99.90;;;;;;5000304;28;20511;-79
2023/01/31 00:13:03;;;;;;;22.17;6.25;;;3.20;99.90;;;;;;4999554;28;21081;-80
2023/01/31 00:15:28;;;;;;;24.05;6.10;;;3.10;99.90;;;;;;4995685;28;20920;-80
2023/01/31 00:17:54;;;;;;;19.20;5.90;;;3.10;99.90;;;;;;4988553;28;20854;-79
2023/01/31 00:20:20;;;;;;;20.90;6.10;;;3.10;99.90;;;;;;4993106;28;20476;-79
2023/01/31 00:22:45;;;;;;;23.10;5.97;;;3.10;99.90;;;;;;5008798;28;20392;-80
2023/01/31 00:25:11;;;;;;;27.00;6.10;;;3.20;99.90;;;;;;5009422;28;20796;-80
2023/01/31 00:27:40;;;;;;;16.97;5.83;;;3.20;99.90;;;;;;4997052;28;20461;-80
2023/01/31 00:30:06;;;;;;;17.83;5.80;;;3.20;99.90;;;;;;5008857;28;20516;-79
2023/01/31 00:32:32;;;;;;;23.10;5.73;;;3.30;99.90;;;;;;5005888;28;20411;-79
2023/01/31 00:34:57;;;;;;;19.57;5.73;;;3.20;99.90;;;;;;5001329;28;20537;-79
2023/01/31 00:37:23;;;;;;;22.23;6.33;;;3.10;99.90;;;;;;5005660;28;20505;-79
2023/01/31 00:39:49;;;;;;;19.30;6.00;;;3.10;99.90;;;;;;5009447;28;20900;-80
2023/01/31 00:42:15;;;;;;;21.88;5.15;;;3.20;99.90;;;;;;5004936;28;20409;-80
2023/01/31 00:44:40;;;;;;;19.45;5.68;;;3.30;99.90;;;;;;4993247;28;20409;-79
2023/01/31 00:47:06;;;;;;;21.77;5.55;;;3.30;99.90;;;;;;5008442;28;20463;-80
2023/01/31 00:49:32;;;;;;;16.73;5.03;;;3.30;99.90;;;;;;5008477;28;20418;-79
2023/01/31 00:51:57;;;;;;;18.20;5.43;;;3.30;99.90;;;;;;5298464;22;20438;-79
2023/01/31 00:54:23;;;;;;;19.05;5.20;;;3.50;99.90;;;;;;5040324;28;20462;-80
2023/01/31 00:56:48;;;;;;;18.45;5.45;;;3.20;99.90;;;;;;5027482;28;20427;-79
2023/01/31 00:59:14;;;;;;;18.43;5.27;;;3.30;99.90;;;;;;5031733;28;20387;-81
2023/01/31 01:01:40;;;;;;;22.83;5.83;;;3.40;99.90;;;;;;5044209;28;20406;-80
2023/01/31 01:04:05;;;;;;;19.03;4.97;;;3.40;99.90;;;;;;5036966;28;20560;-80
2023/01/31 01:06:32;;;;;;;20.67;5.25;;;3.30;99.90;;;;;;5047545;28;20886;-81
2023/01/31 01:08:58;;;;;;;22.05;5.40;;;3.30;99.90;;;;;;5032264;28;20766;-80
2023/01/31 01:11:29;;;;;;;18.90;5.13;;;3.30;99.90;;;;;;5038694;28;20415;-79
2023/01/31 01:13:57;;;;;;;16.92;5.35;;;3.40;99.90;;;;;;5027310;28;20420;-80
2023/01/31 01:16:30;;;;;;;23.85;5.65;;;3.40;99.90;;;;;;5033349;28;20389;-80
2023/01/31 01:18:55;;;;;;;19.08;5.13;;;3.20;99.90;;;;;;5040241;28;20401;-81
2023/01/31 01:21:27;;;;;;;23.98;5.68;;;3.30;99.90;;;;;;5031771;28;20399;-81
2023/01/31 01:23:55;;;;;;;17.17;5.15;;;3.40;99.90;;;;;;5042868;28;20396;-80
2023/01/31 01:26:32;;;;;;;18.20;4.97;;;3.40;99.90;;;;;;5027753;28;20433;-81
2023/01/31 01:29:00;;;;;;;17.27;4.70;;;3.60;99.90;;;;;;5028309;28;20701;-80
2023/01/31 01:31:29;;;;;;;17.65;4.72;;;3.60;99.90;;;;;;5027698;28;20389;-79
2023/01/31 01:34:01;;;;;;;19.65;5.72;;;3.50;99.90;;;;;;5038375;28;20419;-80
2023/01/31 01:36:27;;;;;;;18.83;4.85;;;3.50;99.90;;;;;;5038328;28;20565;-81
2023/01/31 01:38:54;;;;;;;16.90;4.93;;;3.50;99.90;;;;;;5033864;28;20486;-81
2023/01/31 01:41:20;;;;;;;15.80;4.60;;;3.40;99.90;;;;;;5027131;28;20397;-80
2023/01/31 01:43:48;;;;;;;22.20;5.70;;;3.30;99.90;;;;;;5028958;28;20392;-80
2023/01/31 01:46:25;;;;;;;19.70;5.15;;;3.10;99.90;;;;;;5027246;28;20409;-80
2023/01/31 01:48:59;;;;;;;18.02;4.95;;;3.10;99.90;;;;;;5029389;28;20915;-80
2023/01/31 01:51:27;;;;;;;19.65;5.32;;;3.10;99.90;;;;;;5027939;28;20376;-80
2023/01/31 01:53:55;;;;;;;23.93;5.00;;;3.20;99.90;;;;;;5031610;28;20898;-79
2023/01/31 01:56:26;;;;;;;23.02;6.00;;;3.10;99.90;;;;;;5031827;28;20808;-80
2023/01/31 01:59:01;;;;;;;24.92;5.10;;;3.00;99.90;;;;;;5030168;28;20420;-80
2023/01/31 02:01:30;;;;;;;17.02;4.70;;;2.80;99.90;;;;;;5031765;28;20388;-80
2023/01/31 02:03:56;;;;;;;18.67;4.90;;;2.90;99.90;;;;;;5031527;28;20388;-79
2023/01/31 02:06:23;;;;;;;17.93;4.70;;;2.70;99.90;;;;;;5036669;28;20474;-80
2023/01/31 02:08:49;;;;;;;18.05;5.43;;;2.70;99.90;;;;;;5041352;28;21251;-80
2023/01/31 02:11:29;;;;;;;17.63;5.40;;;2.90;99.90;;;;;;5050550;28;20738;-81
2023/01/31 02:14:16;;;;;;;18.27;5.07;;;3.00;99.90;;;;;;5050211;28;20909;-80
2023/01/31 02:16:41;;;;;;;23.13;5.97;;;3.00;99.90;;;;;;5032126;28;20881;-79
2023/01/31 02:19:32;;;;;;;19.90;4.97;;;3.10;99.90;;;;;;5030448;28;20409;-79
2023/01/31 02:22:16;;;;;;;16.55;4.50;;;2.80;99.90;;;;;;5030887;28;20381;-80
2023/01/31 02:25:03;;;;;;;17.63;5.00;;;2.70;99.90;;;;;;5030556;28;20428;-79
2023/01/31 02:27:47;;;;;;;20.00;5.18;;;2.70;99.90;;;;;;5031177;28;20520;-79
2023/01/31 02:30:34;;;;;;;22.42;5.53;;;2.80;99.90;;;;;;5029960;28;20493;-80
2023/01/31 02:33:07;;;;;;;20.90;5.50;;;2.70;99.90;;;;;;5040501;28;20844;-80
2023/01/31 02:35:54;;;;;;;16.02;4.90;;;2.70;99.90;;;;;;5032601;28;20776;-79
2023/01/31 02:38:26;;;;;;;16.45;4.80;;;2.70;99.90;;;;;;5040459;28;20415;-81
2023/01/31 02:40:59;;;;;;;16.00;4.50;;;2.80;99.90;;;;;;5044048;28;20376;-82
2023/01/31 02:47:12;;;;;;;19.73;5.22;;;2.70;99.90;;;;;;5030400;28;20416;-80
2023/01/31 02:49:41;;;;;;;18.63;4.57;;;2.70;99.90;;;;;;5028901;28;20443;-80
2023/01/31 02:52:35;;;;;;;15.60;4.93;;;2.60;99.90;;;;;;5030296;28;20444;-80
2023/01/31 02:58:09;;;;;;;19.63;5.13;;;2.50;99.90;;;;;;5026180;28;20409;-79
2023/01/31 03:00:39;;;;;;;17.02;5.22;;;2.60;99.90;;;;;;5030697;28;20369;-79
2023/01/31 03:03:07;;;;;;;16.83;4.47;;;2.60;99.90;;;;;;5029664;28;20393;-79
2023/01/31 03:05:33;;;;;;;16.75;4.65;;;2.70;99.90;;;;;;5032374;28;20434;-80
2023/01/31 03:08:03;;;;;;;16.33;4.73;;;2.60;99.90;;;;;;5030507;28;20512;-80
2023/01/31 03:10:44;;;;;;;20.40;5.30;;;2.50;99.90;;;;;;5041798;28;20415;-79
2023/01/31 03:13:30;;;;;;;20.35;4.88;;;2.50;99.90;;;;;;5036033;28;20708;-80
2023/01/31 03:19:02;;;;;;;16.05;4.85;;;2.40;99.90;;;;;;5028541;28;20520;-79
2023/01/31 03:21:38;;;;;;;17.50;5.03;;;2.10;99.90;;;;;;5041466;28;20398;-79
2023/01/31 03:24:06;;;;;;;17.50;4.70;;;2.20;99.90;;;;;;5039859;28;20398;-79
2023/01/31 03:26:33;;;;;;;19.30;4.93;;;2.40;99.90;;;;;;5030673;28;20404;-80
2023/01/31 03:29:01;;;;;;;17.63;5.65;;;2.30;99.90;;;;;;5029742;28;20386;-80
2023/01/31 03:31:37;;;;;;;14.48;4.45;;;2.30;99.90;;;;;;5028838;28;20389;-80
2023/01/31 03:34:06;;;;;;;17.95;5.60;;;2.20;99.90;;;;;;5040350;28;20435;-79
2023/01/31 03:36:58;;;;;;;18.65;4.82;;;2.20;99.90;;;;;;5029194;28;20394;-78
2023/01/31 03:39:36;;;;;;;19.70;4.88;;;2.30;99.90;;;;;;5029371;28;20378;-79
2023/01/31 03:42:07;;;;;;;20.27;5.38;;;2.30;99.90;;;;;;5043754;28;20392;-79
2023/01/31 03:44:48;;;;;;;19.20;5.82;;;2.30;99.90;;;;;;5048574;28;20886;-81
2023/01/31 03:47:22;;;;;;;23.10;6.15;;;2.20;99.90;;;;;;5041299;28;20488;-80
2023/01/31 03:49:50;;;;;;;19.57;5.17;;;2.20;99.90;;;;;;5044522;28;20400;-80
2023/01/31 03:52:22;;;;;;;16.05;4.93;;;2.30;99.90;;;;;;5030808;28;20541;-80
2023/01/31 03:54:54;;;;;;;22.83;5.60;;;2.30;99.90;;;;;;5037357;28;20499;-81
2023/01/31 03:57:24;;;;;;;21.08;5.30;;;2.20;99.90;;;;;;5030227;28;20397;-80
2023/01/31 03:59:54;;;;;;;24.77;6.53;;;2.30;99.90;;;;;;5030316;28;20377;-79
2023/01/31 04:02:25;;;;;;;19.48;5.53;;;2.20;99.90;;;;;;5039503;28;20384;-80
2023/01/31 04:04:56;;;;;;;24.23;6.10;;;2.30;99.90;;;;;;5042175;28;20751;-79
2023/01/31 04:07:23;;;;;;;26.53;5.60;;;2.20;99.90;;;;;;5037710;28;20405;-80
2023/01/31 04:09:48;;;;;;;24.65;5.50;;;2.20;99.90;;;;;;5048456;28;20472;-80
2023/01/31 04:12:14;;;;;;;22.23;5.20;;;2.10;99.90;;;;;;5044914;28;20820;-82
2023/01/31 04:14:40;;;;;;;18.80;5.00;;;2.20;99.90;;;;;;5051411;28;20415;-78
2023/01/31 04:17:06;;;;;;;17.98;5.22;;;2.10;99.90;;;;;;5063233;28;20389;-80
2023/01/31 04:19:31;;;;;;;18.53;5.03;;;2.20;99.90;;;;;;5049511;28;20491;-80
2023/01/31 04:21:57;;;;;;;17.60;5.37;;;2.00;99.90;;;;;;5033672;28;20487;-80
2023/01/31 04:24:24;;;;;;;22.53;5.50;;;2.10;99.90;;;;;;5045611;28;20977;-79
2023/01/31 04:26:50;;;;;;;24.00;5.70;;;2.10;99.90;;;;;;5046356;28;20396;-79
2023/01/31 04:29:15;;;;;;;18.42;5.88;;;2.10;99.90;;;;;;5059719;28;20416;-79
2023/01/31 04:31:41;;;;;;;19.52;5.30;;;2.00;99.90;;;;;;5063289;28;20946;-81
2023/01/31 04:34:07;;;;;;;22.73;5.50;;;2.10;99.90;;;;;;5055282;28;20751;-80
2023/01/31 04:36:33;;;;;;;19.80;5.47;;;2.00;99.90;;;;;;5044081;28;20421;-79
2023/01/31 04:39:01;;;;;;;19.00;5.87;;;1.90;99.90;;;;;;5039044;28;20440;-79
2023/01/31 04:41:27;;;;;;;19.25;5.43;;;1.80;99.90;;;;;;5053883;28;20853;-80
2023/01/31 04:43:53;;;;;;;17.13;5.07;;;1.90;99.90;;;;;;5048981;28;20368;-79
2023/01/31 04:46:19;;;;;;;18.08;5.45;;;2.20;99.90;;;;;;5048311;28;20980;-79
2023/01/31 04:48:44;;;;;;;23.45;5.93;;;2.40;99.90;;;;;;5047472;28;20371;-79
2023/01/31 04:51:10;;;;;;;15.73;5.30;;;2.40;99.90;;;;;;5048448;28;20714;-80
2023/01/31 04:53:36;;;;;;;19.97;5.07;;;2.20;99.90;;;;;;5049065;28;20730;-79
2023/01/31 04:56:02;;;;;;;20.00;5.43;;;2.40;99.90;;;;;;5045785;28;20376;-80
2023/01/31 04:58:28;;;;;;;21.08;6.15;;;2.30;99.90;;;;;;5034880;28;20397;-78
2023/01/31 05:00:54;;;;;;;18.33;5.68;;;2.30;99.90;;;;;;5049308;28;20408;-78
2023/01/31 05:03:20;;;;;;;23.23;6.13;;;2.60;99.90;;;;;;5048867;28;20417;-79
2023/01/31 05:05:49;;;;;;;20.27;5.63;;;2.50;99.90;;;;;;5044595;28;20509;-80
2023/01/31 05:08:16;;;;;;;20.02;5.95;;;2.80;99.90;;;;;;5036703;28;20749;-80
2023/01/31 05:10:42;;;;;;;16.27;5.18;;;2.50;99.90;;;;;;5046721;28;20390;-80
2023/01/31 05:13:09;;;;;;;16.15;4.97;;;2.60;99.90;;;;;;5034116;28;20389;-79
2023/01/31 05:15:34;;;;;;;17.55;5.80;;;2.90;99.90;;;;;;5028577;28;20405;-80
2023/01/31 05:18:03;;;;;;;17.80;5.17;;;3.00;99.90;;;;;;5027161;28;20415;-79
2023/01/31 05:20:30;;;;;;;18.77;5.65;;;3.00;99.90;;;;;;5036720;28;20733;-79
2023/01/31 05:22:57;;;;;;;19.65;5.65;;;3.10;99.90;;;;;;5049317;28;20463;-79
2023/01/31 05:25:24;;;;;;;16.95;5.30;;;3.10;99.90;;;;;;5030137;28;20385;-79
2023/01/31 05:27:50;;;;;;;23.75;5.68;;;3.30;99.90;;;;;;5031989;28;20740;-79
2023/01/31 05:30:15;;;;;;;16.93;5.23;;;3.30;99.90;;;;;;5034355;28;20456;-79
2023/01/31 05:32:41;;;;;;;19.90;5.50;;;3.30;99.90;;;;;;5043496;28;20401;-80
2023/01/31 05:35:07;;;;;;;20.08;5.10;;;3.20;99.90;;;;;;5058460;28;20403;-79
2023/01/31 05:37:32;;;;;;;22.40;5.38;;;3.30;99.90;;;;;;5041574;28;20396;-79
2023/01/31 05:39:58;;;;;;;21.23;5.82;;;3.30;99.90;;;;;;5040494;28;20484;-79
2023/01/31 05:42:24;;;;;;;17.80;5.60;;;3.30;99.90;;;;;;5035598;28;20453;-78
2023/01/31 05:44:49;;;;;;;23.87;6.40;;;3.40;99.90;;;;;;5046719;28;20379;-80
2023/01/31 05:47:15;;;;;;;22.33;5.77;;;3.40;99.90;;;;;;5050458;28;20450;-79
2023/01/31 05:49:40;;;;;;;21.25;5.07;;;3.50;99.90;;;;;;5049002;28;20384;-81
2023/01/31 05:52:06;;;;;;;21.80;5.70;;;3.40;99.90;;;;;;5050300;28;20392;-78
2023/01/31 05:54:33;;;;;;;22.57;5.60;;;3.40;99.90;;;;;;5050619;28;20395;-80
2023/01/31 05:56:59;;;;;;;22.95;5.70;;;3.40;99.90;;;;;;5050015;28;20422;-80
2023/01/31 05:59:25;;;;;;;21.23;5.70;;;3.40;99.90;;;;;;5049964;28;20403;-79
2023/01/31 06:01:50;;;;;;;19.85;5.65;;;3.50;99.90;;;;;;5050039;28;20704;-80
2023/01/31 06:04:16;;;;;;;19.10;5.57;;;3.50;99.90;;;;;;5051927;28;20383;-80
2023/01/31 06:06:44;;;;;;;15.90;4.83;;;3.50;99.90;;;;;;5051717;28;20452;-80
2023/01/31 06:09:10;;;;;;;16.38;4.80;;;3.40;99.90;;;;;;5049688;28;20392;-79
2023/01/31 06:11:36;;;;;;;21.95;5.45;;;3.50;99.90;;;;;;5051795;28;20383;-79
2023/01/31 06:14:02;;;;;;;18.03;5.23;;;3.60;99.90;;;;;;5051321;28;20407;-79
2023/01/31 06:16:27;;;;;;;19.75;5.13;;;3.60;99.90;;;;;;5052340;28;20510;-79
2023/01/31 06:18:54;;;;;;;20.00;5.53;;;3.50;99.90;;;;;;5049307;28;20372;-79
2023/01/31 06:21:20;;;;;;;17.67;5.50;;;3.50;99.90;;;;;;5050471;28;20481;-79
2023/01/31 06:23:46;;;;;;;16.20;4.53;;;3.60;99.90;;;;;;5033606;28;20413;-80
2023/01/31 06:26:13;;;;;;;17.13;4.90;;;3.60;99.90;;;;;;5032011;28;20396;-79
2023/01/31 06:28:38;;;;;;;23.17;5.95;;;3.60;99.90;;;;;;5031026;28;20377;-80
2023/01/31 06:31:08;;;;;;;16.05;4.65;;;3.70;99.90;;;;;;5031696;28;20374;-80
2023/01/31 06:33:34;;;;;;;16.98;4.68;;;3.60;99.90;;;;;;5031507;28;20398;-79
2023/01/31 06:36:00;;;;;;;16.33;5.13;;;3.70;99.90;;;;;;5041672;28;20410;-79
2023/01/31 06:38:27;;;;;;;18.77;4.55;;;3.70;99.90;;;;;;5048760;28;20907;-79
2023/01/31 06:40:53;;;;;;;19.98;4.90;;;3.70;99.90;;;;;;5045078;28;20397;-80
2023/01/31 06:43:18;;;;;;;19.30;5.13;;;3.70;99.90;;;;;;5030741;28;20374;-80
2023/01/31 06:45:44;;;;;;;21.73;5.22;;;3.50;99.90;;;;;;5030467;28;20409;-80
2023/01/31 06:48:11;;;;;;;19.20;5.60;;;4.00;99.90;;;;;;5028760;28;20445;-80
2023/01/31 06:50:37;;;;;;;20.13;4.90;;;3.80;99.90;;;;;;5031256;28;20451;-79
2023/01/31 06:53:03;;;;;;;16.52;4.45;;;3.90;99.90;;;;;;5029995;28;20748;-79
2023/01/31 06:55:28;;;;;;;16.90;5.45;;;3.80;99.90;;;;;;5031036;28;20891;-79
2023/01/31 06:57:54;;;;;;;19.27;4.93;;;3.80;99.90;;;;;;5037706;28;20391;-78
2023/01/31 07:00:21;;;;;;;18.07;5.30;;;4.00;99.90;;;;;;5050895;28;20858;-79
2023/01/31 07:02:47;;;;;;;18.88;4.97;;;3.80;99.90;;;;;;5031291;28;20397;-79
2023/01/31 07:05:13;;;;;;;22.73;6.32;;;3.90;99.90;;;;;;5030713;28;20377;-81
2023/01/31 07:07:39;;;;;;;17.38;5.50;;;3.80;99.90;;;;;;5037177;28;20394;-79
2023/01/31 07:10:05;;;;;;;18.65;5.22;;;3.80;99.90;;;;;;5030946;28;20389;-79
2023/01/31 07:12:31;;;;;;;19.55;5.30;;;3.80;99.90;;;;;;5031091;28;20520;-80
2023/01/31 07:14:56;;;;;;;19.38;5.45;;;3.80;99.90;;;;;;5030654;28;20416;-79
2023/01/31 07:17:22;;;;;;;19.00;5.60;;;3.80;99.90;;;;;;5030531;28;20382;-80
2023/01/31 07:19:48;;;;;;;18.43;5.70;;;4.10;99.90;;;;;;5030873;28;20381;-80
2023/01/31 07:22:14;;;;;;;18.03;4.83;;;3.90;99.90;;;;;;5030344;28;20393;-79
2023/01/31 07:24:39;;;;;;;19.90;5.70;;;3.90;99.90;;;;;;5030054;28;20425;-79
2023/01/31 07:27:05;;;;;;;20.13;5.57;;;3.80;99.90;;;;;;5029705;28;20369;-81
2023/01/31 07:29:31;;;;;;;16.42;4.70;;;4.00;99.90;;;;;;5027628;28;20451;-79
2023/01/31 07:31:56;;;;;;;22.20;5.67;;;3.90;99.90;;;;;;5044807;28;20407;-79
2023/01/31 07:34:22;;;;;;;24.30;6.03;;;4.00;99.90;;;;;;5049163;28;20409;-79
2023/01/31 07:36:51;;;;;;;20.23;5.40;;;4.00;99.90;;;;;;5043045;28;20886;-79
2023/01/31 07:39:17;;;;;;;17.90;5.30;;;4.00;99.90;;;;;;5029680;28;20419;-79
2023/01/31 07:41:43;;;;;;;19.50;5.83;;;4.20;99.90;;;;;;5028961;28;20895;-80
2023/01/31 07:44:11;;;;;;;23.65;6.40;;;4.10;99.90;;;;;;5028497;28;20425;-80
2023/01/31 07:46:39;;;;;;;18.17;5.45;;;4.10;99.90;;;;;;5028830;28;20381;-80
2023/01/31 07:49:04;;;;;;;17.77;5.43;;;4.10;99.90;;;;;;5041275;28;20413;-79
2023/01/31 07:51:30;;;;;;;17.63;5.03;;;4.20;99.90;;;;;;5034827;28;20395;-79
2023/01/31 07:53:56;;;;;;;21.07;5.13;;;4.30;99.90;;;;;;5046763;28;20407;-80
2023/01/31 07:56:22;;;;;;;12.05;4.43;;;4.30;99.90;;;;;;5049868;28;20379;-80
2023/01/31 07:58:49;;;;;;;14.70;4.43;;;4.30;99.90;;;;;;5045970;28;20411;-81
2023/01/31 08:04:12;;;;;;;19.15;4.88;;;4.30;99.90;;;;;;5045998;28;21201;-79
2023/01/31 08:06:39;;;;;;;14.82;4.93;;;4.40;99.90;;;;;;5048695;28;20371;-80
2023/01/31 08:09:05;;;;;;;17.93;4.97;;;4.40;99.90;;;;;;5049399;28;20379;-80
2023/01/31 08:11:30;;;;;;;14.93;5.07;;;4.20;99.90;;;;;;5047227;28;20379;-79
2023/01/31 08:13:56;;;;;;;17.27;5.10;;;4.40;99.90;;;;;;5048461;28;20388;-80
2023/01/31 08:16:22;;;;;;;15.50;4.90;;;4.40;99.90;;;;;;5049544;28;20807;-81
2023/01/31 08:18:48;;;;;;;16.50;5.07;;;4.40;99.90;;;;;;5046897;28;20394;-79
2023/01/31 08:21:14;;;;;;;18.30;5.07;;;4.30;99.90;;;;;;5049387;28;20459;-80
2023/01/31 08:23:40;;;;;;;15.43;5.07;;;4.40;99.90;;;;;;5047250;28;20473;-81
2023/01/31 08:26:10;;;;;;;18.40;4.68;;;4.40;99.90;;;;;;5047846;28;20380;-79
2023/01/31 08:28:37;;;;;;;22.13;5.78;;;4.70;99.90;;;;;;5048061;28;20380;-81
2023/01/31 08:31:04;;;;;;;15.88;5.25;;;4.40;99.90;;;;;;5049348;28;20433;-80
2023/01/31 08:33:29;;;;;;;18.45;5.13;;;4.40;99.90;;;;;;5045175;28;20766;-81
2023/01/31 08:35:55;;;;;;;20.17;5.32;;;4.30;99.90;;;;;;5048796;28;20419;-80
2023/01/31 08:38:21;;;;;;;15.63;5.50;;;4.50;99.90;;;;;;5047193;28;20436;-81
2023/01/31 08:40:47;;;;;;;16.07;4.97;;;4.50;99.90;;;;;;5047456;28;20426;-78
2023/01/31 08:43:12;;;;;;;20.17;4.97;;;4.50;99.90;;;;;;5046273;28;20477;-81
2023/01/31 08:45:38;;;;;;;21.20;5.55;;;4.50;99.90;;;;;;5047790;28;20878;-80
2023/01/31 08:48:04;;;;;;;22.05;5.60;;;4.40;99.90;;;;;;5043890;28;20405;-81
2023/01/31 08:50:31;;;;;;;17.90;4.88;;;4.50;99.90;;;;;;5039914;28;20748;-80
2023/01/31 08:53:06;;;;;;;20.88;5.05;;;4.50;99.90;;;;;;5048594;28;20388;-81
2023/01/31 08:55:34;;;;;;;21.73;6.32;;;4.50;99.90;;;;;;5048839;28;20727;-80
2023/01/31 08:58:01;;;;;;;21.88;5.82;;;4.50;99.90;;;;;;5046630;28;20401;-80
2023/01/31 09:00:28;;;;;;;23.45;5.85;;;4.60;99.90;;;;;;5046653;28;20406;-81
2023/01/31 09:02:55;;;;;;;16.85;5.78;;;4.70;99.90;;;;;;5051906;28;20888;-81
2023/01/31 09:05:22;;;;;;;20.25;5.68;;;4.80;99.90;;;;;;5051931;28;20394;-80
2023/01/31 09:07:47;;;;;;;21.73;5.95;;;4.70;99.90;;;;;;5050876;28;20392;-80
2023/01/31 09:10:13;;;;;;;20.20;6.23;;;4.60;99.90;;;;;;5052647;28;20382;-80
2023/01/31 09:12:38;;;;;;;18.83;5.93;;;4.70;99.90;;;;;;5052812;28;20423;-80
2023/01/31 09:15:05;;;;;;;21.52;7.20;;;4.90;99.90;;;;;;5052696;28;20404;-80
2023/01/31 09:17:30;;;;;;;23.55;6.90;;;4.80;99.90;;;;;;5049460;28;20691;-81
2023/01/31 09:19:57;;;;;;;23.53;6.03;;;4.90;99.90;;;;;;5052501;28;20402;-80
2023/01/31 09:22:22;;;;;;;21.50;6.18;;;4.90;99.90;;;;;;5052045;28;20385;-80
2023/01/31 09:24:48;;;;;;;20.83;6.00;;;5.00;99.90;;;;;;5051743;28;20471;-80
2023/01/31 09:27:14;;;;;;;20.70;7.17;;;5.00;99.90;;;;;;5047461;28;20483;-80
2023/01/31 09:29:40;;;;;;;25.10;6.68;;;5.00;99.90;;;;;;5053063;28;20757;-80
2023/01/31 09:32:06;;;;;;;22.23;6.68;;;5.00;99.90;;;;;;5052352;28;20805;-80
2023/01/31 09:34:32;;;;;;;19.00;6.70;;;5.00;99.90;;;;;;5052094;28;20413;-80
2023/01/31 09:36:58;;;;;;;23.13;7.53;;;5.20;99.90;;;;;;5040784;28;20401;-81
2023/01/31 09:39:24;;;;;;;22.93;7.17;;;5.20;99.90;;;;;;5031965;28;20405;-79
2023/01/31 09:41:56;;;;;;;20.77;6.22;;;5.30;99.90;;;;;;5032623;28;20793;-80
2023/01/31 09:44:24;;;;;;;24.23;6.07;;;5.20;99.90;;;;;;5031550;28;20799;-80
2023/01/31 09:46:55;;;;;;;25.55;7.15;;;5.20;99.90;;;;;;5033060;28;20381;-83
2023/01/31 09:49:30;;;;;;;18.63;6.35;;;5.20;99.90;;;;;;5034066;28;20402;-83
2023/01/31 09:51:59;;;;;;;20.75;6.30;;;5.20;99.90;;;;;;5049435;28;20415;-82
2023/01/31 09:54:32;;;;;;;17.88;4.95;;;5.30;99.90;;;;;;5051613;28;20452;-81
2023/01/31 09:57:11;;;;;;;15.88;5.57;;;5.30;99.90;;;;;;5052381;28;21112;-81
2023/01/31 09:59:54;;;;;;;22.60;5.20;;;5.20;99.90;;;;;;5053344;28;20383;-82
2023/01/31 10:02:44;;;;;;;21.55;5.72;;;5.20;99.90;;;;;;5052532;28;20376;-82
2023/01/31 10:05:36;;;;;;;18.52;5.20;;;5.20;99.90;;;;;;5052181;28;20727;-81
2023/01/31 10:08:18;;;;;;;19.35;4.97;;;5.10;99.90;;;;;;5049694;28;20431;-80
2023/01/31 10:11:00;;;;;;;16.13;5.80;;;5.10;99.90;;;;;;5051604;28;20908;-79
2023/01/31 10:13:35;;;;;;;19.80;5.18;;;5.10;99.90;;;;;;5050760;28;20379;-80
2023/01/31 10:16:10;;;;;;;17.27;5.40;;;5.10;99.90;;;;;;5051184;28;20913;-80
2023/01/31 10:18:42;;;;;;;18.27;5.47;;;5.10;99.90;;;;;;5050791;28;20750;-80
2023/01/31 10:21:17;;;;;;;18.20;5.07;;;5.10;99.90;;;;;;5050359;28;20394;-80
2023/01/31 10:24:09;;;;;;;19.70;6.07;;;4.80;99.90;;;;;;5042321;28;20401;-80
2023/01/31 10:26:40;;;;;;;20.75;5.95;;;5.30;99.90;;;;;;5048321;28;20426;-80
2023/01/31 10:29:27;;;;;;;15.75;5.00;;;5.30;99.90;;;;;;5032516;28;20456;-81
2023/01/31 10:32:10;;;;;;;18.38;5.28;;;5.60;99.90;;;;;;5048804;28;20937;-81
2023/01/31 10:34:48;;;;;;;20.65;5.63;;;5.80;99.90;;;;;;5046319;28;20471;-79
2023/01/31 10:37:29;;;;;;;17.65;5.63;;;5.50;99.90;;;;;;5046967;28;20383;-82
2023/01/31 10:40:01;;;;;;;20.00;5.43;;;5.40;99.90;;;;;;5046457;28;20394;-80
2023/01/31 10:42:31;;;;;;;17.05;5.97;;;5.40;99.90;;;;;;5049742;28;20380;-80
2023/01/31 10:45:08;;;;;;;21.00;5.65;;;5.40;99.90;;;;;;5048596;28;20390;-79
2023/01/31 10:47:59;;;;;;;15.65;4.82;;;5.40;99.90;;;;;;5050309;28;20743;-80
2023/01/31 10:50:40;;;;;;;19.08;5.70;;;5.50;99.90;;;;;;5046884;28;20775;-79
2023/01/31 10:53:11;;;;;;;15.15;5.05;;;5.50;99.90;;;;;;5046399;28;20458;-79
2023/01/31 10:55:46;;;;;;;23.02;5.57;;;5.60;99.90;;;;;;5045256;28;20438;-79
2023/01/31 10:58:18;;;;;;;21.20;5.72;;;5.50;99.90;;;;;;5050595;28;20378;-80
2023/01/31 11:00:47;;;;;;;20.50;5.78;;;5.40;99.90;;;;;;5048390;28;20380;-81
2023/01/31 11:03:14;;;;;;;19.92;5.35;;;5.40;99.90;;;;;;5054288;28;20425;-82
2023/01/31 11:05:55;;;;;;;23.27;6.00;;;5.40;99.90;;;;;;5052294;28;20688;-82
2023/01/31 11:08:47;;;;;;;18.77;6.57;;;5.40;99.90;;;;;;5048768;28;20481;-80
2023/01/31 11:11:16;;;;;;;21.45;6.25;;;5.40;99.90;;;;;;5035378;28;20999;-79
2023/01/31 11:13:54;;;;;;;22.27;6.63;;;5.40;99.90;;;;;;5055771;28;20771;-82
2023/01/31 11:16:19;;;;;;;22.08;7.18;;;5.20;99.90;;;;;;5050317;28;20384;-81
2023/01/31 11:18:48;;;;;;;22.58;6.80;;;5.50;99.90;;;;;;5042530;28;20378;-81
2023/01/31 11:21:25;;;;;;;23.48;6.78;;;5.20;99.90;;;;;;5047155;28;20435;-81
2023/01/31 11:23:56;;;;;;;25.70;6.88;;;5.30;99.90;;;;;;5049671;28;20882;-81
2023/01/31 11:26:34;;;;;;;22.55;6.30;;;5.30;99.90;;;;;;5050165;28;20383;-81
2023/01/31 11:29:06;;;;;;;25.95;8.00;;;5.30;99.90;;;;;;5049415;28;20383;-79
2023/01/31 11:31:37;;;;;;;22.33;7.05;;;5.30;99.90;;;;;;5049208;28;20723;-80
2023/01/31 11:34:16;;;;;;;27.38;8.00;;;5.30;99.90;;;;;;5050019;28;20368;-79
2023/01/31 11:36:44;;;;;;;21.83;8.40;;;5.30;99.90;;;;;;5034291;28;20431;-80
2023/01/31 11:39:32;;;;;;;26.20;7.60;;;5.30;99.90;;;;;;5030090;28;20382;-79
2023/01/31 11:42:15;;;;;;;25.40;7.53;;;5.30;99.90;;;;;;5029772;28;20393;-81
2023/01/31 11:45:14;;;;;;;29.02;8.18;;;5.30;99.90;;;;;;5029483;28;20386;-79
2023/01/31 11:47:40;;;;;;;22.15;7.75;;;5.40;99.90;;;;;;5044265;28;20427;-80
2023/01/31 11:50:17;;;;;;;29.38;7.78;;;5.40;99.90;;;;;;5047532;28;20889;-80
2023/01/31 11:52:43;;;;;;;23.75;7.57;;;5.30;99.90;;;;;;5044089;28;20467;-80
2023/01/31 11:55:15;;;;;;;24.48;8.13;;;5.30;99.90;;;;;;5038325;28;20399;-79
2023/01/31 11:57:41;;;;;;;22.90;8.00;;;5.30;99.90;;;;;;5041433;28;20733;-80
2023/01/31 12:00:32;;;;;;;25.13;8.40;;;5.20;99.90;;;;;;5045255;28;20734;-80
2023/01/31 12:03:14;;;;;;;22.35;8.93;;;5.20;99.90;;;;;;5047177;28;20746;-80
2023/01/31 12:05:43;;;;;;;22.38;8.40;;;5.30;99.90;;;;;;5048849;28;20445;-80
2023/01/31 12:08:29;;;;;;;27.77;9.50;;;5.20;99.90;;;;;;5049160;28;20372;-81
2023/01/31 12:10:55;;;;;;;24.67;9.23;;;5.20;99.90;;;;;;5037599;28;20470;-81
2023/01/31 12:13:23;;;;;;;24.58;9.25;;;5.30;99.90;;;;;;5039763;28;21176;-81
2023/01/31 12:15:49;;;;;;;27.33;9.37;;;5.30;99.90;;;;;;5048498;28;20410;-80
2023/01/31 12:18:37;;;;;;;26.58;9.43;;;5.30;99.90;;;;;;5050556;28;20399;-80
2023/01/31 12:21:14;;;;;;;29.05;9.43;;;5.30;99.90;;;;;;5024825;28;20901;-80
2023/01/31 12:24:17;;;;;;;25.27;10.15;;;5.20;99.90;;;;;;5039014;28;20565;-80
2023/01/31 12:27:18;;;;;;;27.13;10.13;;;5.20;99.90;;;;;;5043987;28;20388;-81
2023/01/31 12:29:43;;;;;;;32.53;11.15;;;5.10;99.90;;;;;;5042481;28;20395;-81
2023/01/31 12:32:48;;;;;;;30.23;11.30;;;5.10;99.90;;;;;;5048122;28;20380;-80
2023/01/31 12:35:51;;;;;;;30.38;11.63;;;5.10;99.90;;;;;;5046576;28;20399;-81
2023/01/31 12:38:23;;;;;;;35.00;12.20;;;4.90;99.90;;;;;;5045775;28;20444;-81
2023/01/31 12:41:37;;;;;;;32.60;12.60;;;5.00;99.90;;;;;;5046187;28;20392;-80
2023/01/31 12:44:15;;;;;;;29.05;11.95;;;4.90;99.90;;;;;;5036262;28;20399;-81
2023/01/31 12:47:17;;;;;;;32.55;13.90;;;4.80;99.90;;;;;;5045166;28;20376;-81
2023/01/31 12:50:01;;;;;;;35.40;14.00;;;4.80;99.90;;;;;;5043006;28;20396;-81
2023/01/31 12:52:51;;;;;;;35.87;14.43;;;4.80;99.90;;;;;;5046412;28;20885;-81
2023/01/31 12:55:43;;;;;;;32.58;15.00;;;4.80;99.90;;;;;;5048679;28;20948;-81
2023/01/31 12:58:18;;;;;;;30.15;15.50;;;4.80;99.90;;;;;;5039936;28;20396;-80
2023/01/31 13:00:52;;;;;;;35.22;14.43;;;4.80;99.90;;;;;;5041781;28;20404;-81
2023/01/31 13:03:29;;;;;;;37.58;14.82;;;4.80;99.90;;;;;;5045663;28;20382;-81
2023/01/31 13:06:17;;;;;;;34.20;14.60;;;4.90;99.90;;;;;;5047495;28;20376;-81
2023/01/31 13:08:55;;;;;;;30.90;13.30;;;4.90;99.90;;;;;;5044821;28;20407;-81
2023/01/31 13:11:33;;;;;;;32.90;13.23;;;5.00;99.90;;;;;;5042184;28;20425;-82
2023/01/31 13:14:04;;;;;;;30.33;13.60;;;5.00;99.90;;;;;;5045378;28;20415;-81
2023/01/31 13:16:37;;;;;;;30.83;13.90;;;5.00;99.90;;;;;;5047539;28;20406;-81